Nearby METAR Reports

 

EGNS - Isle Of Man/Rona, United Kingdom
Distance from station: SSW 16mi, 26km
Updated: 24/06/2024 15:20
Overcast
Overcast
 Wind from SSW
Wind: SSW 8 mph, 13 km/h
Temperature: 15°C
Dew Point: 14°C
Humidity: 94%
Barometer: 1018 hPa
Clouds: Overcast
Visibility: 6 miles, 10 km
Cloud details: Partly cloudy 122 m
Overcast 183 m
2024/06/24 14:20 EGNS 241420Z 21007KT 9999 SCT004 OVC006 15/14 Q1018 TEMPO BKN008
EGAC - Belfast Harbour, United Kingdom
Distance from station: WNW 57mi, 92km
Updated: 24/06/2024 15:20
Overcast
Overcast
 Wind from SSE
Wind: SSE 13 mph, 20 km/h
Temperature: 21°C
Dew Point: 15°C
Humidity: 69%
Barometer: 1016 hPa
Clouds: Overcast
Visibility: 6 miles, 10 km
Cloud details: Overcast 1402 m
2024/06/24 14:20 EGAC 241420Z AUTO 16011KT 9999 OVC046 21/15 Q1016
 
EGAA - Belfast/Aldergro, United Kingdom
Distance from station: WNW 71mi, 114km
Updated: 24/06/2024 14:20
Mostly cloudy
Mostly cloudy
 Wind from S
Wind: S 12 mph, 19 km/h
Temperature: 22°C
Dew Point: 16°C
Humidity: 69%
Barometer: 1016 hPa
Clouds: Mostly cloudy
Visibility: 6 miles, 10 km
Cloud details: Few Clouds 975 m
Mostly cloudy 1341 m
2024/06/24 13:20 EGAA 241320Z 19010KT 160V220 9999 FEW032 BKN044 22/16 Q1016
EGNH - Blackpool Airpor, United Kingdom
Distance from station: ESE 73mi, 117km
Updated: 24/06/2024 15:20
Few Clouds
Few Clouds
 Wind from N
Wind: N 8 mph, 13 km/h
Temperature: 20°C
Dew Point: 15°C
Humidity: 73%
Barometer: 1018 hPa
Clouds: Few Clouds
Visibility: 6 miles, 10 km
Cloud details: Few Clouds 1067 m
2024/06/24 14:20 EGNH 241420Z 35007KT 320V020 9999 FEW035 20/15 Q1018
 
EGOV - Valley Raf, United Kingdom
Distance from station: S 73mi, 118km
Updated: 24/06/2024 14:50
Few Clouds
Few Clouds
 Wind from SW
Wind: SW 15 mph, 24 km/h
Temperature: 18°C
Dew Point: 13°C
Humidity: 73%
Barometer: 1018 hPa
Clouds: Few Clouds
Visibility: 6 miles, 10 km
Cloud details: Few Clouds 671 m
2024/06/24 13:50 EGOV 241350Z 22013KT 9999 FEW022 18/13 Q1018 NOSIG RMK BLU BLU
EGNO - Wharton, United Kingdom
Distance from station: ESE 78mi, 125km
Updated: 24/06/2024 15:20
Few Clouds
Few Clouds
 Wind from NW
Wind: NW 9 mph, 15 km/h
Temperature: 22°C
Dew Point: 15°C
Humidity: 65%
Barometer: 1017 hPa
Clouds: Few Clouds
Visibility: 6 miles, 10 km
Cloud details: Few Clouds 914 m
2024/06/24 14:20 EGNO 241420Z 32008KT 290V360 9999 FEW030 22/15 Q1017
 
EGOW - Woodvale Raf, United Kingdom
Distance from station: SE 79mi, 127km
Updated: 24/06/2024 14:50
Few Clouds
Few Clouds
 Wind from NNW
Wind: NNW 12 mph, 19 km/h
Temperature: 22°C
Dew Point: 16°C
Humidity: 69%
Barometer: 1018 hPa
Clouds: Few Clouds
Visibility: 6 miles, 10 km
Cloud details: Few Clouds 1219 m
2024/06/24 13:50 EGOW 241350Z 34010KT 9999 FEW040 22/16 Q1018 RMK BLU
EGPK - Prestwick(Civ/Na, United Kingdom
Distance from station: N 82mi, 132km
Updated: 24/06/2024 15:20
Partly cloudy
Partly cloudy
 Wind from S
Wind: S 16 mph, 26 km/h
Temperature: 23°C
Dew Point: 16°C
Humidity: 65%
Barometer: 1016 hPa
Clouds: Partly cloudy
Visibility: 6 miles, 10 km
Cloud details: Partly cloudy 1036 m
2024/06/24 14:20 EGPK 241420Z 19014KT 9999 SCT034 23/16 Q1016
 
EGCK - Caernarfon, United Kingdom
Distance from station: S 84mi, 136km
Updated: 24/06/2024 15:20
Few Clouds
Few Clouds
 Wind from WSW
Wind: WSW 14 mph, 22 km/h
Temperature: 19°C
Dew Point: 14°C
Humidity: 73%
Barometer: 1018 hPa
Clouds: Few Clouds
Visibility: 6 miles, 10 km
Cloud details: Few Clouds 762 m
2024/06/24 14:20 EGCK 241420Z 25012KT 9999 FEW025 19/14 Q1018
EGEC - Campbeltown, United Kingdom
Distance from station: NNW 90mi, 144km
Updated: 24/06/2024 15:20
Mostly cloudy
Mostly cloudy
 Wind from SSE
Wind: SSE 18 mph, 30 km/h
Temperature: 16°C
Dew Point: 14°C
Humidity: 88%
Barometer: 1015 hPa
Clouds: Mostly cloudy
Visibility: 6 miles, 10 km
Cloud details: Few Clouds 244 m
Mostly cloudy 1280 m
2024/06/24 14:20 EGEC 241420Z 16016KT 9999 FEW008 BKN042 16/14 Q1015
 
EIDW - Dublin Airport, Ireland
Distance from station: SW 93mi, 150km
Updated: 24/06/2024 15:00
Mostly cloudy
Mostly cloudy
 Wind from SE
Wind: SE 8 mph, 13 km/h
Temperature: 22°C
Dew Point: 17°C
Humidity: 73%
Barometer: 1016 hPa
Clouds: Mostly cloudy
Visibility: 6 miles, 10 km
Cloud details: Few Clouds 91 m
Mostly cloudy 1219 m
2024/06/24 14:00 EIDW 241400Z 13007KT 080V190 9999 FEW003 BKN040 22/17 Q1016 NOSIG
EGOM - Spadeadam, United Kingdom
Distance from station: NE 95mi, 152km
Updated: 24/06/2024 14:50
Clear
Clear
 Wind from W
Wind: W 12 mph, 19 km/h
Temperature: 21°C
Dew Point: 14°C
Humidity: 64%
Barometer: 1018 hPa
Clouds: Clear
Visibility: 6 miles, 10 km
2024/06/24 13:50 EGOM 241350Z AUTO 26010KT 9999 NCD 21/14 Q1018
 
EGGP - Liverpool Airpor, United Kingdom
Distance from station: SE 98mi, 157km
Updated: 24/06/2024 15:20
Partly cloudy
Partly cloudy
 Wind from SSE
Wind: SSE 5 mph, 7 km/h
Temperature: 23°C
Dew Point: 16°C
Humidity: 65%
Barometer: 1018 hPa
Clouds: Partly cloudy
Visibility: 6 miles, 10 km
Cloud details: Partly cloudy 1067 m
2024/06/24 14:20 EGGP 241420Z 16004KT 120V220 9999 SCT035 23/16 Q1018
Free Website Hit Counter
Free website hit counter